PWSweather.com
Personal Weather Stations
Station Observations
WISCHPK61
Green Bay Schmitt Park, Green Bay, WI 54311

Green Bay Schmitt ParkGreen Bay, WI 54311

Lat: 44.514277, Lon: -87.935067

Elevation: 735

Station Type: Acu Rite Pro Weather Center model 02032C

http://greenbayweathercam.com

High Low Average
Temperature 46.8°F8.2°C 19.2°F-7.1°C 30.7°F-0.7°C
Dew Point 30.9°F-0.6°C 15.7°F-9.1°C 23.6°F-4.7°C
Winds 3.5 mph 5.6 kmh Calm Calm 1.0 mph S1.6 kmh S
Wind Gusts 9.2 mph14.8 kmh -- 1.0 mph1.6 kmh
Humidity 98% 44% 77%
Pressure 29.40 in995.6 mb 29.09 in985.1 mb -
Precipitation 0.00 in0.0 mm - -
Hour Temp Dew Point Humidity Winds Wind Gusts Pressure Precip Precip Rate Daily Precip Total
12:00 AM 28.2°F-2.1°C 25.9°F-3.4°C 91% Calm Calm -- 29.09 in985.1 mb - 0.00 in0.0 mm 0.00 in0.0 mm
12:15 AM 28.0°F-2.2°C 26.2°F-3.2°C 93% Calm Calm -- 29.09 in985.1 mb - 0.00 in0.0 mm 0.00 in0.0 mm
12:30 AM 28.4°F-2.0°C 26.6°F-3.0°C 93% Calm Calm -- 29.09 in985.1 mb - 0.00 in0.0 mm 0.00 in0.0 mm
12:45 AM 28.6°F-1.9°C 26.8°F-2.9°C 93% Calm Calm -- 29.09 in985.1 mb - 0.00 in0.0 mm 0.00 in0.0 mm
01:00 AM 28.6°F-1.9°C 26.6°F-3.0°C 92% Calm Calm -- 29.09 in985.1 mb - 0.00 in0.0 mm 0.00 in0.0 mm
01:15 AM 28.6°F-1.9°C 26.8°F-2.9°C 93% Calm Calm -- 29.09 in985.1 mb - 0.00 in0.0 mm 0.00 in0.0 mm
01:30 AM 27.9°F-2.3°C 26.1°F-3.3°C 93% Calm Calm -- 29.09 in985.1 mb - 0.00 in0.0 mm 0.00 in0.0 mm
01:45 AM 27.0°F-2.8°C 25.8°F-3.4°C 95% Calm Calm -- 29.09 in985.1 mb - 0.00 in0.0 mm 0.00 in0.0 mm
02:00 AM 26.3°F-3.2°C 25.3°F-3.7°C 96% Calm Calm -- 29.10 in985.4 mb - 0.00 in0.0 mm 0.00 in0.0 mm
02:15 AM 25.9°F-3.4°C 24.9°F-3.9°C 96% Calm Calm -- 29.10 in985.4 mb - 0.00 in0.0 mm 0.00 in0.0 mm
02:30 AM 25.5°F-3.6°C 24.8°F-4.0°C 97% Calm Calm -- 29.10 in985.4 mb - 0.00 in0.0 mm 0.00 in0.0 mm
02:45 AM 25.2°F-3.8°C 24.7°F-4.1°C 98% Calm Calm -- 29.10 in985.4 mb - 0.00 in0.0 mm 0.00 in0.0 mm
03:00 AM 25.0°F-3.9°C 24.5°F-4.2°C 98% Calm Calm -- 29.10 in985.4 mb - 0.00 in0.0 mm 0.00 in0.0 mm
03:15 AM 24.6°F-4.1°C 24.1°F-4.4°C 98% Calm Calm -- 29.09 in985.1 mb - 0.00 in0.0 mm 0.00 in0.0 mm
03:30 AM 24.3°F-4.3°C 23.8°F-4.6°C 98% Calm Calm -- 29.09 in985.1 mb - 0.00 in0.0 mm 0.00 in0.0 mm
03:45 AM 24.1°F-4.4°C 23.6°F-4.7°C 98% Calm Calm -- 29.10 in985.4 mb - 0.00 in0.0 mm 0.00 in0.0 mm
04:00 AM 23.9°F-4.5°C 23.4°F-4.8°C 98% Calm Calm -- 29.09 in985.1 mb - 0.00 in0.0 mm 0.00 in0.0 mm
04:15 AM 23.7°F-4.6°C 23.2°F-4.9°C 98% Calm Calm -- 29.09 in985.1 mb - 0.00 in0.0 mm 0.00 in0.0 mm
04:30 AM 23.5°F-4.7°C 23.0°F-5.0°C 98% Calm Calm -- 29.09 in985.1 mb - 0.00 in0.0 mm 0.00 in0.0 mm
04:45 AM 23.5°F-4.7°C 23.0°F-5.0°C 98% Calm Calm -- 29.09 in985.1 mb - 0.00 in0.0 mm 0.00 in0.0 mm
05:00 AM 23.7°F-4.6°C 23.2°F-4.9°C 98% Calm Calm -- 29.10 in985.4 mb - 0.00 in0.0 mm 0.00 in0.0 mm
05:15 AM 23.9°F-4.5°C 23.4°F-4.8°C 98% Calm Calm -- 29.10 in985.4 mb - 0.00 in0.0 mm 0.00 in0.0 mm
05:30 AM 24.3°F-4.3°C 23.8°F-4.6°C 98% Calm Calm -- 29.10 in985.4 mb - 0.00 in0.0 mm 0.00 in0.0 mm
05:45 AM 24.3°F-4.3°C 23.8°F-4.6°C 98% Calm Calm -- 29.10 in985.4 mb - 0.00 in0.0 mm 0.00 in0.0 mm
06:00 AM 24.3°F-4.3°C 23.8°F-4.6°C 98% Calm Calm -- 29.10 in985.4 mb - 0.00 in0.0 mm 0.00 in0.0 mm
06:15 AM 24.3°F-4.3°C 23.6°F-4.7°C 97% Calm Calm -- 29.11 in985.8 mb - 0.00 in0.0 mm 0.00 in0.0 mm
06:30 AM 24.6°F-4.1°C 23.9°F-4.5°C 97% Calm Calm -- 29.11 in985.8 mb - 0.00 in0.0 mm 0.00 in0.0 mm
06:45 AM 25.2°F-3.8°C 24.5°F-4.2°C 97% Calm Calm -- 29.11 in985.8 mb - 0.00 in0.0 mm 0.00 in0.0 mm
07:00 AM 25.7°F-3.5°C 25.0°F-3.9°C 97% Calm Calm -- 29.12 in986.1 mb - 0.00 in0.0 mm 0.00 in0.0 mm
07:15 AM 26.4°F-3.1°C 25.7°F-3.5°C 97% Calm Calm -- 29.12 in986.1 mb - 0.00 in0.0 mm 0.00 in0.0 mm
07:30 AM 27.0°F-2.8°C 26.0°F-3.3°C 96% Calm Calm -- 29.12 in986.1 mb - 0.00 in0.0 mm 0.00 in0.0 mm
07:45 AM 28.1°F-2.2°C 26.9°F-2.8°C 95% Calm Calm -- 29.12 in986.1 mb - 0.00 in0.0 mm 0.00 in0.0 mm
08:00 AM 29.1°F-1.6°C 27.3°F-2.6°C 93% Calm Calm -- 29.13 in986.5 mb - 0.00 in0.0 mm 0.00 in0.0 mm
08:15 AM 30.0°F-1.1°C 27.7°F-2.4°C 91% 1.2 mph NW1.9 kmh NW 2.3 mph3.7 kmh 29.13 in986.5 mb - 0.00 in0.0 mm 0.00 in0.0 mm
08:30 AM 30.7°F-0.7°C 28.4°F-2.0°C 91% 2.3 mph NNW3.7 kmh NNW 2.3 mph3.7 kmh 29.13 in986.5 mb - 0.00 in0.0 mm 0.00 in0.0 mm
08:45 AM 31.5°F-0.3°C 28.6°F-1.9°C 89% 2.3 mph W3.7 kmh W 3.5 mph5.6 kmh 29.13 in986.5 mb - 0.00 in0.0 mm 0.00 in0.0 mm
09:00 AM 32.0°F0.0°C 28.8°F-1.8°C 88% 2.3 mph NW3.7 kmh NW 2.3 mph3.7 kmh 29.13 in986.5 mb - 0.00 in0.0 mm 0.00 in0.0 mm
09:15 AM 32.5°F0.3°C 29.6°F-1.3°C 89% 1.2 mph ENE1.9 kmh ENE 1.2 mph1.9 kmh 29.14 in986.8 mb - 0.00 in0.0 mm 0.00 in0.0 mm
09:30 AM 34.7°F1.5°C 30.9°F-0.6°C 86% Calm Calm -- 29.15 in987.1 mb - 0.00 in0.0 mm 0.00 in0.0 mm
09:45 AM 34.9°F1.6°C 30.6°F-0.8°C 84% 1.2 mph SSE1.9 kmh SSE 2.3 mph3.7 kmh 29.16 in987.5 mb - 0.00 in0.0 mm 0.00 in0.0 mm
10:00 AM 34.3°F1.3°C 29.1°F-1.6°C 81% Calm Calm -- 29.17 in987.8 mb - 0.00 in0.0 mm 0.00 in0.0 mm
10:15 AM 33.7°F0.9°C 27.6°F-2.4°C 78% 1.2 mph WNW1.9 kmh WNW 9.2 mph14.8 kmh 29.18 in988.1 mb - 0.00 in0.0 mm 0.00 in0.0 mm
10:30 AM 33.8°F1.0°C 27.0°F-2.8°C 76% Calm Calm 2.3 mph3.7 kmh 29.18 in988.1 mb - 0.00 in0.0 mm 0.00 in0.0 mm
10:45 AM 35.1°F1.7°C 26.6°F-3.0°C 71% 1.2 mph ENE1.9 kmh ENE 1.2 mph1.9 kmh 29.18 in988.1 mb - 0.00 in0.0 mm 0.00 in0.0 mm
11:00 AM 36.1°F2.3°C 27.6°F-2.4°C 71% 2.3 mph NE3.7 kmh NE 1.2 mph1.9 kmh 29.18 in988.1 mb - 0.00 in0.0 mm 0.00 in0.0 mm
11:15 AM 37.0°F2.8°C 27.8°F-2.3°C 69% 2.3 mph SSE3.7 kmh SSE 3.5 mph5.6 kmh 29.18 in988.1 mb - 0.00 in0.0 mm 0.00 in0.0 mm
11:30 AM 39.6°F4.2°C 28.4°F-2.0°C 64% 3.5 mph SE5.6 kmh SE 3.5 mph5.6 kmh 29.19 in988.5 mb - 0.00 in0.0 mm 0.00 in0.0 mm
11:45 AM 37.9°F3.3°C 27.2°F-2.7°C 65% 2.3 mph SSW3.7 kmh SSW 3.5 mph5.6 kmh 29.19 in988.5 mb - 0.00 in0.0 mm 0.00 in0.0 mm
12:00 PM 40.4°F4.7°C 29.2°F-1.6°C 64% 2.3 mph E3.7 kmh E 3.5 mph5.6 kmh 29.19 in988.5 mb - 0.00 in0.0 mm 0.00 in0.0 mm
12:15 PM 42.4°F5.8°C 29.5°F-1.4°C 60% 3.5 mph N5.6 kmh N 3.5 mph5.6 kmh 29.20 in988.8 mb - 0.00 in0.0 mm 0.00 in0.0 mm
12:30 PM 41.2°F5.1°C 27.9°F-2.3°C 59% 3.5 mph N5.6 kmh N 3.5 mph5.6 kmh 29.20 in988.8 mb - 0.00 in0.0 mm 0.00 in0.0 mm
12:45 PM 39.9°F4.4°C 27.1°F-2.7°C 60% 2.3 mph SE3.7 kmh SE 2.3 mph3.7 kmh 29.20 in988.8 mb - 0.00 in0.0 mm 0.00 in0.0 mm
01:00 PM 43.3°F6.3°C 28.2°F-2.1°C 55% 2.3 mph NNW3.7 kmh NNW 2.3 mph3.7 kmh 29.20 in988.8 mb - 0.00 in0.0 mm 0.00 in0.0 mm
01:15 PM 43.3°F6.3°C 28.6°F-1.9°C 56% 2.3 mph NNE3.7 kmh NNE 2.3 mph3.7 kmh 29.20 in988.8 mb - 0.00 in0.0 mm 0.00 in0.0 mm
01:30 PM 43.6°F6.4°C 27.1°F-2.7°C 52% 2.3 mph S3.7 kmh S 4.6 mph7.4 kmh 29.20 in988.8 mb - 0.00 in0.0 mm 0.00 in0.0 mm
01:45 PM 43.2°F6.2°C 26.7°F-2.9°C 52% 3.5 mph N5.6 kmh N 4.6 mph7.4 kmh 29.20 in988.8 mb - 0.00 in0.0 mm 0.00 in0.0 mm
02:00 PM 46.6°F8.1°C 29.4°F-1.4°C 51% 2.3 mph NW3.7 kmh NW 3.5 mph5.6 kmh 29.20 in988.8 mb - 0.00 in0.0 mm 0.00 in0.0 mm
02:15 PM 46.1°F7.8°C 28.0°F-2.2°C 49% 3.5 mph NE5.6 kmh NE 3.5 mph5.6 kmh 29.20 in988.8 mb - 0.00 in0.0 mm 0.00 in0.0 mm
02:30 PM 46.8°F8.2°C 28.6°F-1.9°C 49% 2.3 mph SSE3.7 kmh SSE 3.5 mph5.6 kmh 29.20 in988.8 mb - 0.00 in0.0 mm 0.00 in0.0 mm
02:45 PM 45.6°F7.6°C 27.0°F-2.8°C 48% 2.3 mph E3.7 kmh E 2.3 mph3.7 kmh 29.20 in988.8 mb - 0.00 in0.0 mm 0.00 in0.0 mm
03:00 PM 46.7°F8.2°C 28.1°F-2.2°C 48% 2.3 mph NNW3.7 kmh NNW 2.3 mph3.7 kmh 29.20 in988.8 mb - 0.00 in0.0 mm 0.00 in0.0 mm
03:15 PM 46.8°F8.2°C 26.0°F-3.3°C 44% 1.2 mph ENE1.9 kmh ENE 2.3 mph3.7 kmh 29.20 in988.8 mb - 0.00 in0.0 mm 0.00 in0.0 mm
03:30 PM 46.5°F8.1°C 25.7°F-3.5°C 44% 2.3 mph E3.7 kmh E 2.3 mph3.7 kmh 29.20 in988.8 mb - 0.00 in0.0 mm 0.00 in0.0 mm
03:45 PM 42.3°F5.7°C 24.5°F-4.2°C 49% 2.3 mph ESE3.7 kmh ESE 3.5 mph5.6 kmh 29.20 in988.8 mb - 0.00 in0.0 mm 0.00 in0.0 mm
04:00 PM 40.4°F4.7°C 23.6°F-4.7°C 51% 2.3 mph WSW3.7 kmh WSW 3.5 mph5.6 kmh 29.20 in988.8 mb - 0.00 in0.0 mm 0.00 in0.0 mm
04:15 PM 39.0°F3.9°C 22.8°F-5.1°C 52% 1.2 mph SE1.9 kmh SE 4.6 mph7.4 kmh 29.21 in989.2 mb - 0.00 in0.0 mm 0.00 in0.0 mm
04:30 PM 38.7°F3.7°C 22.6°F-5.2°C 52% 2.3 mph SSE3.7 kmh SSE 2.3 mph3.7 kmh 29.20 in988.8 mb - 0.00 in0.0 mm 0.00 in0.0 mm
04:45 PM 37.2°F2.9°C 21.6°F-5.8°C 53% 3.5 mph NNE5.6 kmh NNE 3.5 mph5.6 kmh 29.21 in989.2 mb - 0.00 in0.0 mm 0.00 in0.0 mm
05:00 PM 36.3°F2.4°C 21.7°F-5.7°C 55% 1.2 mph WSW1.9 kmh WSW 1.2 mph1.9 kmh 29.21 in989.2 mb - 0.00 in0.0 mm 0.00 in0.0 mm
05:15 PM 35.7°F2.1°C 20.2°F-6.6°C 53% 1.2 mph E1.9 kmh E 2.3 mph3.7 kmh 29.22 in989.5 mb - 0.00 in0.0 mm 0.00 in0.0 mm
05:30 PM 34.7°F1.5°C 20.6°F-6.3°C 56% Calm Calm -- 29.22 in989.5 mb - 0.00 in0.0 mm 0.00 in0.0 mm
05:45 PM 33.9°F1.1°C 19.4°F-7.0°C 55% 1.2 mph E1.9 kmh E 1.2 mph1.9 kmh 29.22 in989.5 mb - 0.00 in0.0 mm 0.00 in0.0 mm
06:00 PM 33.2°F0.7°C 19.1°F-7.2°C 56% 1.2 mph S1.9 kmh S 2.3 mph3.7 kmh 29.23 in989.8 mb - 0.00 in0.0 mm 0.00 in0.0 mm
06:15 PM 32.4°F0.2°C 18.8°F-7.3°C 57% Calm Calm -- 29.24 in990.2 mb - 0.00 in0.0 mm 0.00 in0.0 mm
06:30 PM 31.8°F-0.1°C 18.3°F-7.6°C 57% Calm Calm -- 29.25 in990.5 mb - 0.00 in0.0 mm 0.00 in0.0 mm
06:45 PM 31.3°F-0.4°C 18.2°F-7.7°C 58% Calm Calm -- 29.25 in990.5 mb - 0.00 in0.0 mm 0.00 in0.0 mm
07:00 PM 30.2°F-1.0°C 18.4°F-7.6°C 61% Calm Calm -- 29.26 in990.9 mb - 0.00 in0.0 mm 0.00 in0.0 mm
07:15 PM 29.2°F-1.6°C 18.5°F-7.5°C 64% Calm Calm -- 29.27 in991.2 mb - 0.00 in0.0 mm 0.00 in0.0 mm
07:30 PM 28.3°F-2.1°C 18.0°F-7.8°C 65% Calm Calm -- 29.28 in991.5 mb - 0.00 in0.0 mm 0.00 in0.0 mm
07:45 PM 27.3°F-2.6°C 18.1°F-7.7°C 68% Calm Calm -- 29.29 in991.9 mb - 0.00 in0.0 mm 0.00 in0.0 mm
08:00 PM 26.8°F-2.9°C 18.0°F-7.8°C 69% Calm Calm -- 29.29 in991.9 mb - 0.00 in0.0 mm 0.00 in0.0 mm
08:15 PM 26.1°F-3.3°C 18.0°F-7.8°C 71% Calm Calm -- 29.30 in992.2 mb - 0.00 in0.0 mm 0.00 in0.0 mm
08:30 PM 25.4°F-3.7°C 17.9°F-7.8°C 73% Calm Calm -- 29.31 in992.6 mb - 0.00 in0.0 mm 0.00 in0.0 mm
08:45 PM 24.6°F-4.1°C 19.6°F-6.9°C 81% 1.2 mph NW1.9 kmh NW 1.2 mph1.9 kmh 29.32 in992.9 mb - 0.00 in0.0 mm 0.00 in0.0 mm
09:00 PM 24.3°F-4.3°C 19.9°F-6.7°C 83% 1.2 mph NNW1.9 kmh NNW 2.3 mph3.7 kmh 29.32 in992.9 mb - 0.00 in0.0 mm 0.00 in0.0 mm
09:15 PM 23.7°F-4.6°C 20.1°F-6.6°C 86% 1.2 mph NW1.9 kmh NW 2.3 mph3.7 kmh 29.34 in993.6 mb - 0.00 in0.0 mm 0.00 in0.0 mm
09:30 PM 23.2°F-4.9°C 20.2°F-6.6°C 88% Calm Calm -- 29.34 in993.6 mb - 0.00 in0.0 mm 0.00 in0.0 mm
09:45 PM 22.1°F-5.5°C 19.4°F-7.0°C 89% Calm Calm -- 29.34 in993.6 mb - 0.00 in0.0 mm 0.00 in0.0 mm
10:00 PM 21.9°F-5.6°C 19.2°F-7.1°C 89% Calm Calm -- 29.35 in993.9 mb - 0.00 in0.0 mm 0.00 in0.0 mm
10:15 PM 21.7°F-5.7°C 18.7°F-7.4°C 88% Calm Calm -- 29.36 in994.2 mb - 0.00 in0.0 mm 0.00 in0.0 mm
10:30 PM 21.9°F-5.6°C 18.4°F-7.6°C 86% Calm Calm -- 29.36 in994.2 mb - 0.00 in0.0 mm 0.00 in0.0 mm
10:45 PM 22.1°F-5.5°C 18.8°F-7.3°C 87% Calm Calm -- 29.37 in994.6 mb - 0.00 in0.0 mm 0.00 in0.0 mm
11:00 PM 21.9°F-5.6°C 18.1°F-7.7°C 85% Calm Calm -- 29.37 in994.6 mb - 0.00 in0.0 mm 0.00 in0.0 mm
11:15 PM 21.7°F-5.7°C 18.2°F-7.7°C 86% Calm Calm -- 29.38 in994.9 mb - 0.00 in0.0 mm 0.00 in0.0 mm
11:30 PM 21.0°F-6.1°C 17.5°F-8.1°C 86% Calm Calm -- 29.39 in995.3 mb - 0.00 in0.0 mm 0.00 in0.0 mm
11:45 PM 20.3°F-6.5°C 17.0°F-8.3°C 87% Calm Calm -- 29.39 in995.3 mb - 0.00 in0.0 mm 0.00 in0.0 mm